Woodgate — D5BX7 — position and weather

sailwx.info

Track history (hours):
 
Tides and Currents Weather Stations Pressure Air Temp Water Temp Dewpoint Dewpoint Depression Visibility Wind Speed Wind Dir Waves Ship Positions

Woodgate

Last reported at 2016-Dec-13 19:33 UTC. Time now 2017-Jan-19 19:07 UTC.
Position N 37°31' W 029°42'.
Warning: this ship's position is 36 days out of date.

Length 169 m; draft 9.6 m.

Type: Cargo ship. MMSI: 636015627.

Date/timePositionNaut miles runAvg speedWind from/ knotsBaromVisibWave heightAir tempDewpointWater temp
2016-Dec-13 19:33N 37°31' W 029°42'9 9.0
2016-Dec-13 18:33N 37°33' W 029°31'9 8.7
2016-Dec-13 17:33N 37°35' W 029°20'9 8.9
2016-Dec-13 16:33N 37°38' W 029°10'8 8.3
2016-Dec-13 15:33N 37°40' W 028°60'8 7.9
2016-Dec-13 14:33N 37°42' W 028°50'8 8.0
2016-Dec-13 13:33N 37°45' W 028°41'8 8.0
2016-Dec-13 12:33N 37°47' W 028°31'8 7.8
2016-Dec-13 11:33N 37°50' W 028°22'8 7.8
2016-Dec-13 10:33N 37°52' W 028°12'7 6.8
2016-Dec-13 09:33N 37°54' W 028°04'7 6.8
2016-Dec-13 08:33N 37°56' W 027°56'5 5.3
2016-Dec-13 07:33N 37°59' W 027°50'6 5.9
2016-Dec-13 06:33N 38°02' W 027°43'9 8.7
2016-Dec-13 05:32N 38°07' W 027°34'1010.6
2016-Dec-13 04:33N 38°13' W 027°24'1111.2
2016-Dec-13 03:33N 38°21' W 027°13'1211.6
2016-Dec-13 02:33N 38°28' W 027°02'1211.9
2016-Dec-13 01:34N 38°35' W 026°50'1212.0
2016-Dec-13 00:33N 38°43' W 026°38'1111.3
2016-Dec-12 23:33N 38°49' W 026°26'  
2016-Dec-08 19:19N 51°32' W 006°13'4912.0
2016-Dec-08 15:16N 52°15' W 005°39'9511.9
2016-Dec-08 07:16N 53°34' W 004°10'1013.9
2016-Dec-08 06:33N 53°33' W 003°53'1413.7
2016-Dec-08 05:33N 53°33' W 003°30'1110.8
2016-Dec-08 04:34N 53°31' W 003°12'8 8.1
2016-Dec-08 03:33N 53°26' W 003°01'0 0.5
2016-Dec-08 02:31N 53°27' W 003°01'0 0.4
2016-Dec-08 01:31N 53°26' W 003°00'0 0.0
2016-Dec-08 00:31N 53°26' W 003°00'0 0.0
2016-Dec-07 23:31N 53°26' W 003°00'0 0.0
2016-Dec-07 22:31N 53°26' W 003°00'0 0.0
2016-Dec-07 21:31N 53°26' W 003°00'0 0.0
2016-Dec-07 20:31N 53°26' W 003°00'0 0.0
2016-Dec-07 19:34N 53°26' W 003°00'0 0.0
2016-Dec-07 18:31N 53°26' W 003°00'0 0.0
2016-Dec-07 17:28N 53°26' W 003°00'0 0.0
2016-Dec-07 16:31N 53°26' W 003°00'0 0.0
2016-Dec-07 15:28N 53°26' W 003°00'0 0.0
2016-Dec-07 14:31N 53°26' W 003°00'0 0.0
2016-Dec-07 13:34N 53°26' W 003°00'0 0.0
2016-Dec-07 12:31N 53°26' W 003°00'0 0.0
2016-Dec-07 11:31N 53°26' W 003°00'0 0.0
2016-Dec-07 10:28N 53°26' W 003°00'0 0.0
2016-Dec-07 09:31N 53°26' W 003°00'0 0.0
2016-Dec-07 08:31N 53°26' W 003°00'0 0.0
2016-Dec-07 07:31N 53°26' W 003°00'0 0.0
2016-Dec-07 06:28N 53°26' W 003°00'0 0.0
2016-Dec-07 05:31N 53°26' W 003°00'0 0.0
2016-Dec-07 04:31N 53°26' W 003°00'0 0.0
2016-Dec-07 03:31N 53°26' W 003°00'0 0.0
2016-Dec-07 02:31N 53°26' W 003°00'0 0.0
2016-Dec-07 01:28N 53°26' W 003°00'0 0.0
2016-Dec-07 00:31N 53°26' W 003°00'0 0.0
2016-Dec-06 23:31N 53°26' W 003°00'0 0.0
2016-Dec-06 22:31N 53°26' W 003°00'0 0.0
2016-Dec-06 21:28N 53°26' W 003°00'0 0.0
2016-Dec-06 20:28N 53°26' W 003°00'0 0.0
2016-Dec-06 18:28N 53°26' W 003°00'0 0.0
2016-Dec-06 17:28N 53°26' W 003°00'0 0.0
2016-Dec-06 16:31N 53°26' W 003°00'0 0.0
2016-Dec-06 15:31N 53°26' W 003°00'0 0.0
2016-Dec-06 14:31N 53°26' W 003°00'0 0.0
2016-Dec-06 13:31N 53°26' W 003°00'0 0.0
2016-Dec-06 12:28N 53°26' W 003°00'0 0.0
2016-Dec-06 11:28N 53°26' W 003°00'0 0.0
2016-Dec-06 10:34N 53°26' W 003°00'0 0.0
2016-Dec-06 09:31N 53°26' W 003°00'0 0.0
2016-Dec-06 08:31N 53°26' W 003°00'0 0.0
2016-Dec-06 07:31N 53°26' W 003°00'0 0.0
2016-Dec-06 06:31N 53°26' W 003°00'0 0.0
2016-Dec-06 05:31N 53°26' W 003°00'0 0.0
2016-Dec-06 04:31N 53°26' W 003°00'0 0.0
2016-Dec-06 03:31N 53°26' W 003°00'0 0.0
2016-Dec-06 02:31N 53°26' W 003°00'0 0.0
2016-Dec-06 01:31N 53°26' W 003°00'0 0.0
2016-Dec-06 00:34N 53°26' W 003°00'0 0.0
2016-Dec-05 23:31N 53°26' W 003°00'0 0.0
2016-Dec-05 22:28N 53°26' W 003°00'0 0.0
2016-Dec-05 21:28N 53°26' W 003°00'0 0.0
2016-Dec-05 20:31N 53°26' W 003°00'0 0.0
2016-Dec-05 19:31N 53°26' W 003°00'0 0.0
2016-Dec-05 18:31N 53°26' W 003°00'0 0.0
2016-Dec-05 17:34N 53°26' W 003°00'0 0.0
2016-Dec-05 16:34N 53°26' W 003°00'0 0.0
2016-Dec-05 15:31N 53°26' W 003°00'0 0.0
2016-Dec-05 14:28N 53°26' W 003°00'0 0.0
2016-Dec-05 13:31N 53°26' W 003°00'0 0.0
2016-Dec-05 12:34N 53°26' W 003°00'0 0.0
2016-Dec-05 11:31N 53°26' W 003°00'0 0.0
2016-Dec-05 10:31N 53°26' W 003°00'0 0.0
2016-Dec-05 09:31N 53°26' W 003°00'0 0.0
2016-Dec-05 08:31N 53°26' W 003°00'0 0.0
2016-Dec-05 07:34N 53°26' W 003°00'0 0.0
2016-Dec-05 06:28N 53°26' W 003°00'0 0.0
2016-Dec-05 05:31N 53°26' W 003°00'0 0.0
2016-Dec-05 04:31N 53°26' W 003°00'0 0.0
2016-Dec-05 03:31N 53°26' W 003°00'0 0.0
2016-Dec-05 02:31N 53°26' W 003°00'0 0.0
2016-Dec-05 01:31N 53°26' W 003°00'0 0.0
2016-Dec-05 00:28N 53°26' W 003°00'0 0.0
2016-Dec-04 23:28N 53°26' W 003°00'0 0.0
2016-Dec-04 22:19N 53°26' W 003°00'0 0.0
2016-Dec-04 21:28N 53°26' W 003°00'0 0.0
2016-Dec-04 20:31N 53°26' W 003°00'0 0.0
2016-Dec-04 19:31N 53°26' W 003°00'0 0.0
2016-Dec-04 18:31N 53°26' W 003°00'0 0.0
2016-Dec-04 17:28N 53°26' W 003°00'0 0.0
2016-Dec-04 16:31N 53°26' W 003°00'0 0.0
2016-Dec-04 15:31N 53°26' W 003°00'0 0.0
2016-Dec-04 14:28N 53°26' W 003°00'0 0.0
2016-Dec-04 13:25N 53°26' W 003°00'0 0.0
2016-Dec-04 12:31N 53°26' W 003°00'0 0.0
2016-Dec-04 11:31N 53°26' W 003°00'0 0.0
2016-Dec-04 10:34N 53°26' W 003°00'0 0.0
2016-Dec-04 09:31N 53°26' W 003°00'0 0.0
2016-Dec-04 08:34N 53°26' W 003°00'0 0.0
2016-Dec-04 07:31N 53°26' W 003°00'0 0.0
2016-Dec-04 06:31N 53°26' W 003°00'0 0.0
2016-Dec-04 05:31N 53°26' W 003°00'0 0.0
2016-Dec-04 04:31N 53°26' W 003°00'0 0.0
2016-Dec-04 03:31N 53°26' W 003°00'0 0.0
2016-Dec-04 02:34N 53°26' W 003°00'0 0.0
2016-Dec-04 01:28N 53°26' W 003°00'0 0.0
2016-Dec-04 00:34N 53°26' W 003°00'0 0.0
2016-Dec-03 23:31N 53°26' W 003°00'0 0.0
2016-Dec-03 22:31N 53°26' W 003°00'0 0.0
2016-Dec-03 21:28N 53°26' W 003°00'0 0.0
2016-Dec-03 20:28N 53°26' W 003°00'  
Track history (hours):
 
Tides and Currents Weather Stations Pressure Air Temp Water Temp Dewpoint Dewpoint Depression Visibility Wind Speed Wind Dir Waves Ship Positions

Woodgate

Last reported at 2016-Dec-13 19:33 UTC. Time now 2017-Jan-19 19:07 UTC.
Position N 37°31' W 029°42'.
Warning: this ship's position is 36 days out of date.

Length 169 m; draft 9.6 m.

Type: Cargo ship. MMSI: 636015627.

Date/timePositionNaut miles runAvg speedWind from/ knotsBaromVisibWave heightAir tempDewpointWater temp
2016-Dec-13 19:33N 37°31' W 029°42'9 9.0
2016-Dec-13 18:33N 37°33' W 029°31'9 8.7
2016-Dec-13 17:33N 37°35' W 029°20'9 8.9
2016-Dec-13 16:33N 37°38' W 029°10'8 8.3
2016-Dec-13 15:33N 37°40' W 028°60'8 7.9
2016-Dec-13 14:33N 37°42' W 028°50'8 8.0
2016-Dec-13 13:33N 37°45' W 028°41'8 8.0
2016-Dec-13 12:33N 37°47' W 028°31'8 7.8
2016-Dec-13 11:33N 37°50' W 028°22'8 7.8
2016-Dec-13 10:33N 37°52' W 028°12'7 6.8
2016-Dec-13 09:33N 37°54' W 028°04'7 6.8
2016-Dec-13 08:33N 37°56' W 027°56'5 5.3
2016-Dec-13 07:33N 37°59' W 027°50'6 5.9
2016-Dec-13 06:33N 38°02' W 027°43'9 8.7
2016-Dec-13 05:32N 38°07' W 027°34'1010.6
2016-Dec-13 04:33N 38°13' W 027°24'1111.2
2016-Dec-13 03:33N 38°21' W 027°13'1211.6
2016-Dec-13 02:33N 38°28' W 027°02'1211.9
2016-Dec-13 01:34N 38°35' W 026°50'1212.0
2016-Dec-13 00:33N 38°43' W 026°38'1111.3
2016-Dec-12 23:33N 38°49' W 026°26'  
2016-Dec-08 19:19N 51°32' W 006°13'4912.0
2016-Dec-08 15:16N 52°15' W 005°39'9511.9
2016-Dec-08 07:16N 53°34' W 004°10'1013.9
2016-Dec-08 06:33N 53°33' W 003°53'1413.7
2016-Dec-08 05:33N 53°33' W 003°30'1110.8
2016-Dec-08 04:34N 53°31' W 003°12'8 8.1
2016-Dec-08 03:33N 53°26' W 003°01'0 0.5
2016-Dec-08 02:31N 53°27' W 003°01'0 0.4
2016-Dec-08 01:31N 53°26' W 003°00'0 0.0
2016-Dec-08 00:31N 53°26' W 003°00'0 0.0
2016-Dec-07 23:31N 53°26' W 003°00'0 0.0
2016-Dec-07 22:31N 53°26' W 003°00'0 0.0
2016-Dec-07 21:31N 53°26' W 003°00'0 0.0
2016-Dec-07 20:31N 53°26' W 003°00'0 0.0
2016-Dec-07 19:34N 53°26' W 003°00'0 0.0
2016-Dec-07 18:31N 53°26' W 003°00'0 0.0
2016-Dec-07 17:28N 53°26' W 003°00'0 0.0
2016-Dec-07 16:31N 53°26' W 003°00'0 0.0
2016-Dec-07 15:28N 53°26' W 003°00'0 0.0
2016-Dec-07 14:31N 53°26' W 003°00'0 0.0
2016-Dec-07 13:34N 53°26' W 003°00'0 0.0
2016-Dec-07 12:31N 53°26' W 003°00'0 0.0
2016-Dec-07 11:31N 53°26' W 003°00'0 0.0
2016-Dec-07 10:28N 53°26' W 003°00'0 0.0
2016-Dec-07 09:31N 53°26' W 003°00'0 0.0
2016-Dec-07 08:31N 53°26' W 003°00'0 0.0
2016-Dec-07 07:31N 53°26' W 003°00'0 0.0
2016-Dec-07 06:28N 53°26' W 003°00'0 0.0
2016-Dec-07 05:31N 53°26' W 003°00'0 0.0
2016-Dec-07 04:31N 53°26' W 003°00'0 0.0
2016-Dec-07 03:31N 53°26' W 003°00'0 0.0
2016-Dec-07 02:31N 53°26' W 003°00'0 0.0
2016-Dec-07 01:28N 53°26' W 003°00'0 0.0
2016-Dec-07 00:31N 53°26' W 003°00'0 0.0
2016-Dec-06 23:31N 53°26' W 003°00'0 0.0
2016-Dec-06 22:31N 53°26' W 003°00'0 0.0
2016-Dec-06 21:28N 53°26' W 003°00'0 0.0
2016-Dec-06 20:28N 53°26' W 003°00'0 0.0
2016-Dec-06 18:28N 53°26' W 003°00'0 0.0
2016-Dec-06 17:28N 53°26' W 003°00'0 0.0
2016-Dec-06 16:31N 53°26' W 003°00'0 0.0
2016-Dec-06 15:31N 53°26' W 003°00'0 0.0
2016-Dec-06 14:31N 53°26' W 003°00'0 0.0
2016-Dec-06 13:31N 53°26' W 003°00'0 0.0
2016-Dec-06 12:28N 53°26' W 003°00'0 0.0
2016-Dec-06 11:28N 53°26' W 003°00'0 0.0
2016-Dec-06 10:34N 53°26' W 003°00'0 0.0
2016-Dec-06 09:31N 53°26' W 003°00'0 0.0
2016-Dec-06 08:31N 53°26' W 003°00'0 0.0
2016-Dec-06 07:31N 53°26' W 003°00'0 0.0
2016-Dec-06 06:31N 53°26' W 003°00'0 0.0
2016-Dec-06 05:31N 53°26' W 003°00'0 0.0
2016-Dec-06 04:31N 53°26' W 003°00'0 0.0
2016-Dec-06 03:31N 53°26' W 003°00'0 0.0
2016-Dec-06 02:31N 53°26' W 003°00'0 0.0
2016-Dec-06 01:31N 53°26' W 003°00'0 0.0
2016-Dec-06 00:34N 53°26' W 003°00'0 0.0
2016-Dec-05 23:31N 53°26' W 003°00'0 0.0
2016-Dec-05 22:28N 53°26' W 003°00'0 0.0
2016-Dec-05 21:28N 53°26' W 003°00'0 0.0
2016-Dec-05 20:31N 53°26' W 003°00'0 0.0
2016-Dec-05 19:31N 53°26' W 003°00'0 0.0
2016-Dec-05 18:31N 53°26' W 003°00'0 0.0
2016-Dec-05 17:34N 53°26' W 003°00'0 0.0
2016-Dec-05 16:34N 53°26' W 003°00'0 0.0
2016-Dec-05 15:31N 53°26' W 003°00'0 0.0
2016-Dec-05 14:28N 53°26' W 003°00'0 0.0
2016-Dec-05 13:31N 53°26' W 003°00'0 0.0
2016-Dec-05 12:34N 53°26' W 003°00'0 0.0
2016-Dec-05 11:31N 53°26' W 003°00'0 0.0
2016-Dec-05 10:31N 53°26' W 003°00'0 0.0
2016-Dec-05 09:31N 53°26' W 003°00'0 0.0
2016-Dec-05 08:31N 53°26' W 003°00'0 0.0
2016-Dec-05 07:34N 53°26' W 003°00'0 0.0
2016-Dec-05 06:28N 53°26' W 003°00'0 0.0
2016-Dec-05 05:31N 53°26' W 003°00'0 0.0
2016-Dec-05 04:31N 53°26' W 003°00'0 0.0
2016-Dec-05 03:31N 53°26' W 003°00'0 0.0
2016-Dec-05 02:31N 53°26' W 003°00'0 0.0
2016-Dec-05 01:31N 53°26' W 003°00'0 0.0
2016-Dec-05 00:28N 53°26' W 003°00'0 0.0
2016-Dec-04 23:28N 53°26' W 003°00'0 0.0
2016-Dec-04 22:19N 53°26' W 003°00'0 0.0
2016-Dec-04 21:28N 53°26' W 003°00'0 0.0
2016-Dec-04 20:31N 53°26' W 003°00'0 0.0
2016-Dec-04 19:31N 53°26' W 003°00'0 0.0
2016-Dec-04 18:31N 53°26' W 003°00'0 0.0
2016-Dec-04 17:28N 53°26' W 003°00'0 0.0
2016-Dec-04 16:31N 53°26' W 003°00'0 0.0
2016-Dec-04 15:31N 53°26' W 003°00'0 0.0
2016-Dec-04 14:28N 53°26' W 003°00'0 0.0
2016-Dec-04 13:25N 53°26' W 003°00'0 0.0
2016-Dec-04 12:31N 53°26' W 003°00'0 0.0
2016-Dec-04 11:31N 53°26' W 003°00'0 0.0
2016-Dec-04 10:34N 53°26' W 003°00'0 0.0
2016-Dec-04 09:31N 53°26' W 003°00'0 0.0
2016-Dec-04 08:34N 53°26' W 003°00'0 0.0
2016-Dec-04 07:31N 53°26' W 003°00'0 0.0
2016-Dec-04 06:31N 53°26' W 003°00'0 0.0
2016-Dec-04 05:31N 53°26' W 003°00'0 0.0
2016-Dec-04 04:31N 53°26' W 003°00'0 0.0
2016-Dec-04 03:31N 53°26' W 003°00'0 0.0
2016-Dec-04 02:34N 53°26' W 003°00'0 0.0
2016-Dec-04 01:28N 53°26' W 003°00'0 0.0
2016-Dec-04 00:34N 53°26' W 003°00'0 0.0
2016-Dec-03 23:31N 53°26' W 003°00'0 0.0
2016-Dec-03 22:31N 53°26' W 003°00'0 0.0
2016-Dec-03 21:28N 53°26' W 003°00'0 0.0
2016-Dec-03 20:28N 53°26' W 003°00'  

Dump ship's entire track history